createdAt,value
2019-05-17T00:01:33.810Z,10.18
2019-05-17T00:04:04.263Z,10.22
2019-05-17T00:06:36.808Z,10.18
2019-05-17T00:09:26.816Z,10.15
2019-05-17T00:12:09.418Z,10.13
2019-05-17T00:14:39.827Z,10.12
2019-05-17T00:17:10.298Z,10.10
2019-05-17T00:19:40.702Z,10.10
2019-05-17T00:22:11.275Z,10.06
2019-05-17T00:24:41.660Z,10.05
2019-05-17T00:27:12.176Z,10.04
2019-05-17T00:29:42.576Z,10.07
2019-05-17T00:32:13.047Z,10.03
2019-05-17T00:35:02.968Z,10.02
2019-05-17T00:37:33.397Z,10.00
2019-05-17T00:40:03.905Z,10.01
2019-05-17T00:42:34.374Z,10.00
2019-05-17T00:45:06.768Z,9.99
2019-05-17T00:47:48.719Z,10.00
2019-05-17T00:50:19.256Z,10.02
2019-05-17T00:52:49.701Z,10.09
2019-05-17T00:55:26.803Z,10.07
2019-05-17T00:58:09.542Z,10.06
2019-05-17T01:00:40.018Z,10.06
2019-05-17T01:03:10.570Z,10.06
2019-05-17T01:05:41.040Z,10.08
2019-05-17T01:08:11.524Z,10.03
2019-05-17T01:10:41.907Z,10.00
2019-05-17T01:13:12.497Z,9.98
2019-05-17T01:15:42.851Z,10.00
2019-05-17T01:18:13.381Z,9.99
2019-05-17T01:23:57.829Z,9.94
2019-05-17T01:26:28.309Z,9.93
2019-05-17T01:28:58.879Z,9.96
2019-05-17T01:31:29.268Z,9.94
2019-05-17T01:34:19.122Z,9.99
2019-05-17T01:36:49.493Z,9.98
2019-05-17T01:39:21.472Z,9.97
2019-05-17T01:42:03.407Z,9.93
2019-05-17T01:44:33.807Z,9.92
2019-05-17T01:47:04.166Z,9.90
2019-05-17T01:49:36.290Z,9.91
2019-05-17T01:52:27.331Z,9.88
2019-05-17T01:55:09.209Z,9.88
2019-05-17T01:57:39.707Z,9.87
2019-05-17T02:00:37.300Z,9.87
2019-05-17T02:03:12.362Z,9.85
2019-05-17T02:05:42.859Z,9.86
2019-05-17T02:08:13.389Z,9.86
2019-05-17T02:10:44.069Z,9.86
2019-05-17T02:13:16.413Z,9.85
2019-05-17T02:15:57.721Z,9.85
2019-05-17T02:18:28.162Z,9.85
2019-05-17T02:20:58.585Z,9.84
2019-05-17T02:23:28.973Z,9.88
2019-05-17T02:25:59.396Z,9.89
2019-05-17T02:28:32.033Z,9.94
2019-05-17T02:31:07.340Z,9.91
2019-05-17T02:33:38.074Z,9.88
2019-05-17T02:36:46.647Z,9.85
2019-05-17T02:39:17.113Z,9.85
2019-05-17T02:41:47.634Z,9.83
2019-05-17T02:44:18.052Z,9.83
2019-05-17T02:46:48.464Z,9.92
2019-05-17T02:49:19.008Z,9.88
2019-05-17T02:52:08.789Z,9.83
2019-05-17T02:54:39.179Z,9.84
2019-05-17T02:57:09.569Z,9.87
2019-05-17T02:59:43.151Z,9.85
2019-05-17T03:02:27.704Z,9.85
2019-05-17T03:05:08.116Z,9.83
2019-05-17T03:07:38.482Z,9.82
2019-05-17T03:10:29.131Z,9.79
2019-05-17T03:13:05.881Z,9.77
2019-05-17T03:15:36.259Z,9.76
2019-05-17T03:18:06.717Z,9.77
2019-05-17T03:20:37.122Z,9.78
2019-05-17T03:23:07.499Z,9.77
2019-05-17T03:25:57.252Z,9.79
2019-05-17T03:28:27.727Z,9.87
2019-05-17T03:30:58.132Z,9.79
2019-05-17T03:33:28.825Z,9.88
2019-05-17T03:36:05.385Z,9.84
2019-05-17T03:38:53.423Z,9.82
2019-05-17T03:41:34.327Z,9.74
2019-05-17T03:44:17.499Z,9.68
2019-05-17T03:46:47.885Z,9.68
2019-05-17T03:49:18.356Z,9.62
2019-05-17T03:51:48.698Z,9.63
2019-05-17T03:54:22.417Z,9.67
2019-05-17T03:57:03.097Z,9.72
2019-05-17T03:59:45.927Z,9.76
2019-05-17T04:02:16.382Z,9.83
2019-05-17T04:04:52.703Z,9.82
2019-05-17T04:07:33.262Z,9.76
2019-05-17T04:10:04.621Z,9.74
2019-05-17T04:12:44.080Z,9.76
2019-05-17T04:15:24.384Z,9.85
2019-05-17T04:18:07.234Z,9.89
2019-05-17T04:20:37.595Z,9.94
2019-05-17T04:23:07.977Z,9.96
2019-05-17T04:25:57.782Z,10.01
2019-05-17T04:28:28.214Z,10.10
2019-05-17T04:31:17.993Z,10.16
2019-05-17T04:33:48.463Z,10.17
2019-05-17T04:36:22.243Z,10.21
2019-05-17T04:39:02.558Z,10.25
2019-05-17T04:41:49.941Z,10.31
2019-05-17T04:44:28.817Z,10.39
2019-05-17T04:47:06.666Z,10.50
2019-05-17T04:49:37.151Z,10.60
2019-05-17T04:52:07.554Z,10.69
2019-05-17T04:54:38.026Z,10.80
2019-05-17T04:57:08.424Z,10.88
2019-05-17T04:59:38.856Z,10.91
2019-05-17T05:02:09.268Z,10.83
2019-05-17T05:04:43.229Z,10.85
2019-05-17T05:07:33.570Z,10.72
2019-05-17T05:10:14.697Z,10.70
2019-05-17T05:12:45.089Z,10.69
2019-05-17T05:15:53.923Z,10.77
2019-05-17T05:18:24.306Z,10.88
2019-05-17T05:20:54.733Z,11.00
2019-05-17T05:23:25.147Z,11.07
2019-05-17T05:25:55.613Z,11.12
2019-05-17T05:28:26.084Z,11.23
2019-05-17T05:30:56.484Z,11.31
2019-05-17T05:33:26.947Z,11.36
2019-05-17T05:35:57.434Z,11.39
2019-05-17T05:38:27.925Z,11.42
2019-05-17T05:40:58.330Z,11.51
2019-05-17T05:43:28.758Z,11.58
2019-05-17T05:45:59.310Z,11.69
2019-05-17T05:48:32.370Z,11.82
2019-05-17T05:51:13.707Z,11.82
2019-05-17T05:53:52.191Z,11.94
2019-05-17T05:56:33.532Z,12.06
2019-05-17T05:59:03.905Z,12.26
2019-05-17T06:01:34.394Z,12.32
2019-05-17T06:04:04.838Z,12.30
2019-05-17T06:06:35.364Z,12.39
2019-05-17T06:09:08.197Z,12.46
2019-05-17T06:11:38.647Z,12.63
2019-05-17T06:14:09.040Z,12.72
2019-05-17T06:16:39.516Z,12.72
2019-05-17T06:19:11.673Z,12.81
2019-05-17T06:21:52.883Z,12.85
2019-05-17T06:24:23.262Z,13.02
2019-05-17T06:26:53.683Z,13.07
2019-05-17T06:29:24.110Z,13.09
2019-05-17T06:31:54.513Z,13.15
2019-05-17T06:34:24.952Z,13.20
2019-05-17T06:36:55.444Z,13.33
2019-05-17T06:39:25.920Z,13.30
2019-05-17T06:41:56.348Z,13.27
2019-05-17T06:44:26.755Z,13.36
2019-05-17T06:46:57.170Z,13.35
2019-05-17T06:49:27.593Z,13.54
2019-05-17T06:52:17.383Z,13.67
2019-05-17T06:54:47.829Z,13.65
2019-05-17T06:57:18.214Z,13.60
2019-05-17T06:59:48.652Z,13.66
2019-05-17T07:02:19.726Z,13.83
2019-05-17T07:07:56.228Z,13.97
2019-05-17T07:10:26.642Z,14.12
2019-05-17T07:12:59.651Z,14.29
2019-05-17T07:15:47.515Z,14.39
2019-05-17T07:18:23.082Z,14.60
2019-05-17T07:20:53.486Z,14.82
2019-05-17T07:23:23.990Z,14.89
2019-05-17T07:25:54.365Z,14.90
2019-05-17T07:28:24.816Z,14.96
2019-05-17T07:31:07.181Z,14.90
2019-05-17T07:33:39.805Z,14.85
2019-05-17T07:36:20.466Z,14.84
2019-05-17T07:38:50.973Z,14.73
2019-05-17T07:41:21.331Z,14.61
2019-05-17T07:43:51.819Z,14.56
2019-05-17T07:46:22.299Z,14.56
2019-05-17T07:48:52.808Z,14.56
2019-05-17T07:51:23.330Z,14.53
2019-05-17T07:53:53.867Z,14.62
2019-05-17T07:56:24.444Z,14.62
2019-05-17T07:58:55.007Z,14.57
2019-05-17T08:01:25.455Z,14.51
2019-05-17T08:03:56.172Z,14.58
2019-05-17T08:06:26.626Z,14.65
2019-05-17T08:09:01.159Z,14.82
2019-05-17T08:11:40.062Z,14.90
2019-05-17T08:14:10.689Z,15.04
2019-05-17T08:16:41.024Z,14.85
2019-05-17T08:19:11.544Z,14.79
2019-05-17T08:21:41.927Z,15.01
2019-05-17T08:24:12.437Z,15.33
2019-05-17T08:26:42.794Z,15.51
2019-05-17T08:29:13.228Z,15.64
2019-05-17T08:31:43.643Z,15.84
2019-05-17T08:34:14.065Z,15.89
2019-05-17T08:36:44.440Z,15.90
2019-05-17T08:39:15.237Z,15.89
2019-05-17T08:41:45.812Z,15.95
2019-05-17T08:44:16.390Z,15.92
2019-05-17T08:46:46.934Z,16.09
2019-05-17T08:49:17.427Z,16.36
2019-05-17T08:51:49.935Z,16.77
2019-05-17T08:54:33.406Z,16.83
2019-05-17T08:57:04.100Z,17.18
2019-05-17T08:59:34.594Z,17.35
2019-05-17T09:02:10.645Z,17.63
2019-05-17T09:05:00.433Z,17.89
2019-05-17T09:07:44.450Z,18.10
2019-05-17T09:10:15.078Z,18.04
2019-05-17T09:12:45.566Z,18.14
2019-05-17T09:18:12.839Z,18.18
2019-05-17T09:20:43.258Z,18.09
2019-05-17T09:23:16.890Z,17.97
2019-05-17T09:25:50.148Z,18.16
2019-05-17T09:28:27.119Z,18.46
2019-05-17T09:30:59.692Z,18.46
2019-05-17T09:33:49.730Z,18.33
2019-05-17T09:36:32.082Z,18.16
2019-05-17T09:39:02.499Z,18.45
2019-05-17T09:41:52.289Z,18.56
2019-05-17T09:44:22.775Z,18.68
2019-05-17T09:46:53.113Z,18.82
2019-05-17T09:49:23.585Z,18.57
2019-05-17T09:51:54.127Z,18.46
2019-05-17T09:54:45.398Z,18.63
2019-05-17T09:57:36.075Z,18.69
2019-05-17T10:00:09.691Z,18.58
2019-05-17T10:03:00.053Z,18.54
2019-05-17T10:05:41.591Z,18.40
2019-05-17T10:08:12.138Z,18.15
2019-05-17T10:11:08.615Z,18.26
2019-05-17T10:13:45.588Z,18.28
2019-05-17T10:16:16.112Z,18.35
2019-05-17T10:18:46.683Z,18.27
2019-05-17T10:21:17.063Z,18.29
2019-05-17T10:23:49.693Z,18.38
2019-05-17T10:26:30.697Z,18.38
2019-05-17T10:29:01.165Z,18.38
2019-05-17T10:31:31.701Z,18.60
2019-05-17T10:34:02.240Z,19.30
2019-05-17T10:36:32.665Z,19.52
2019-05-17T10:39:03.081Z,19.83
2019-05-17T10:41:33.513Z,20.34
2019-05-17T10:44:04.241Z,20.64
2019-05-17T10:46:34.759Z,20.43
2019-05-17T10:49:05.270Z,20.66
2019-05-17T10:51:35.825Z,20.90
2019-05-17T10:54:06.267Z,21.27
2019-05-17T10:56:36.861Z,21.50
2019-05-17T10:59:09.660Z,21.86
2019-05-17T11:01:50.309Z,21.62
2019-05-17T11:04:32.924Z,21.81
2019-05-17T11:07:22.817Z,21.30
2019-05-17T11:09:53.292Z,20.70
2019-05-17T11:12:25.303Z,20.72
2019-05-17T11:15:09.818Z,20.88
2019-05-17T11:17:38.704Z,21.27
2019-05-17T11:23:11.206Z,20.72
2019-05-17T11:25:45.531Z,20.83
2019-05-17T11:28:25.133Z,21.18
2019-05-17T11:30:55.817Z,21.21
2019-05-17T11:33:26.183Z,21.37
2019-05-17T11:35:56.717Z,21.54
2019-05-17T11:38:27.233Z,21.91
2019-05-17T11:40:57.636Z,22.04
2019-05-17T11:43:28.276Z,21.64
2019-05-17T11:45:58.719Z,21.43
2019-05-17T11:48:29.393Z,21.14
2019-05-17T11:50:59.886Z,20.87
2019-05-17T11:53:30.395Z,21.04
2019-05-17T11:56:01.019Z,21.09
2019-05-17T11:58:33.048Z,21.45
2019-05-17T12:01:03.476Z,21.65
2019-05-17T12:03:33.892Z,21.48
2019-05-17T12:06:23.712Z,21.69
2019-05-17T12:08:54.216Z,22.02
2019-05-17T12:11:24.618Z,21.81
2019-05-17T12:13:55.026Z,21.66
2019-05-17T12:16:25.470Z,22.01
2019-05-17T12:18:55.882Z,22.03
2019-05-17T12:21:26.357Z,21.37
2019-05-17T12:23:56.907Z,21.25
2019-05-17T12:26:27.410Z,21.22
2019-05-17T12:28:57.858Z,21.48
2019-05-17T12:31:28.365Z,21.62
2019-05-17T12:33:58.813Z,21.69
2019-05-17T12:36:29.257Z,21.89
2019-05-17T12:38:59.679Z,22.02
2019-05-17T12:41:30.118Z,22.16
2019-05-17T12:44:00.523Z,22.23
2019-05-17T12:46:30.957Z,22.49
2019-05-17T12:49:02.091Z,22.76
2019-05-17T12:51:53.023Z,23.01
2019-05-17T12:54:23.437Z,22.83
2019-05-17T12:56:54.021Z,22.55
2019-05-17T12:59:24.423Z,22.91
2019-05-17T13:01:54.991Z,22.94
2019-05-17T13:04:25.478Z,23.23
2019-05-17T13:06:55.972Z,22.79
2019-05-17T13:09:26.517Z,22.64
2019-05-17T13:11:57.318Z,22.70
2019-05-17T13:14:28.105Z,22.76
2019-05-17T13:16:58.482Z,22.69
2019-05-17T13:19:28.906Z,22.75
2019-05-17T13:21:59.341Z,22.65
2019-05-17T13:24:29.771Z,22.61
2019-05-17T13:27:00.247Z,22.86
2019-05-17T13:29:30.853Z,23.13
2019-05-17T13:32:01.299Z,22.88
2019-05-17T13:34:31.817Z,22.52
2019-05-17T13:37:02.262Z,22.28
2019-05-17T13:39:52.060Z,22.48
2019-05-17T13:42:22.593Z,22.52
2019-05-17T13:44:53.121Z,22.74
2019-05-17T13:47:23.696Z,23.05
2019-05-17T13:49:54.186Z,23.31
2019-05-17T13:52:24.718Z,23.15
2019-05-17T13:54:55.173Z,23.32
2019-05-17T13:57:25.677Z,23.42
2019-05-17T13:59:56.167Z,23.47
2019-05-17T14:02:26.547Z,23.07
2019-05-17T14:04:57.098Z,23.23
2019-05-17T14:07:27.553Z,23.92
2019-05-17T14:09:58.009Z,24.43
2019-05-17T14:12:28.341Z,24.71
2019-05-17T14:14:58.916Z,25.52
2019-05-17T14:17:29.324Z,26.31
2019-05-17T14:19:59.908Z,26.17
2019-05-17T14:22:30.296Z,26.62
2019-05-17T14:25:00.839Z,27.18
2019-05-17T14:27:31.244Z,27.70
2019-05-17T14:30:01.811Z,27.68
2019-05-17T14:32:32.180Z,27.58
2019-05-17T14:35:02.779Z,28.22
2019-05-17T14:37:33.176Z,29.13
2019-05-17T14:40:03.690Z,29.55
2019-05-17T14:42:34.180Z,29.46
2019-05-17T14:45:04.842Z,29.98
2019-05-17T14:47:35.239Z,29.82
2019-05-17T14:50:05.877Z,29.85
2019-05-17T14:52:36.271Z,30.20
2019-05-17T14:55:06.793Z,29.79
2019-05-17T14:57:37.299Z,29.94
2019-05-17T15:00:14.082Z,29.60
2019-05-17T15:02:44.492Z,29.62
2019-05-17T15:05:15.129Z,29.38
2019-05-17T15:07:45.530Z,29.37
2019-05-17T15:10:16.163Z,30.39
2019-05-17T15:12:46.825Z,31.30
2019-05-17T15:15:25.628Z,31.57
2019-05-17T15:17:59.641Z,31.29
2019-05-17T15:20:30.075Z,31.08
2019-05-17T15:23:19.850Z,30.91
2019-05-17T15:25:50.375Z,31.05
2019-05-17T15:28:20.733Z,30.65
2019-05-17T15:30:51.250Z,30.08
2019-05-17T15:33:21.635Z,28.63
2019-05-17T15:36:11.473Z,29.00
2019-05-17T15:39:01.251Z,29.73
2019-05-17T15:41:31.742Z,29.52
2019-05-17T15:44:02.316Z,29.42
2019-05-17T15:46:32.700Z,30.15
2019-05-17T15:49:23.634Z,30.25
2019-05-17T15:52:13.467Z,30.75
2019-05-17T15:54:43.868Z,30.59
2019-05-17T15:57:14.366Z,30.35
2019-05-17T15:59:44.780Z,31.17
2019-05-17T16:02:15.190Z,31.94
2019-05-17T16:04:45.633Z,32.67
2019-05-17T16:07:16.081Z,31.47
2019-05-17T16:09:46.638Z,31.10
2019-05-17T16:12:17.072Z,31.30
2019-05-17T16:14:47.492Z,30.87
2019-05-17T16:17:17.978Z,30.08
2019-05-17T16:19:48.373Z,30.13
2019-05-17T16:22:18.823Z,30.16
2019-05-17T16:24:49.316Z,30.23
2019-05-17T16:27:19.742Z,30.68
2019-05-17T16:29:50.124Z,30.65
2019-05-17T16:32:20.665Z,30.15
2019-05-17T16:34:51.152Z,30.15
2019-05-17T16:37:21.700Z,29.97
2019-05-17T16:39:52.223Z,29.65
2019-05-17T16:42:22.655Z,29.70
2019-05-17T16:44:53.014Z,28.93
2019-05-17T16:47:42.842Z,28.79
2019-05-17T16:50:13.352Z,28.28
2019-05-17T16:52:43.821Z,28.97
2019-05-17T16:58:39.483Z,28.23
2019-05-17T17:01:10.089Z,25.49
2019-05-17T17:03:44.269Z,24.99
2019-05-17T17:06:23.971Z,25.43
2019-05-17T17:09:13.842Z,25.54
2019-05-17T17:11:45.807Z,26.00
2019-05-17T17:14:27.822Z,26.11
2019-05-17T17:16:58.221Z,25.57
2019-05-17T17:19:28.811Z,25.27
2019-05-17T17:22:18.652Z,25.18
2019-05-17T17:28:10.506Z,24.69
2019-05-17T17:30:40.993Z,24.09
2019-05-17T17:33:11.468Z,24.13
2019-05-17T17:35:41.968Z,23.62
2019-05-17T17:38:12.927Z,23.82
2019-05-17T17:41:02.724Z,23.80
2019-05-17T17:43:33.240Z,21.97
2019-05-17T17:46:03.734Z,19.94
2019-05-17T17:48:34.120Z,18.64
2019-05-17T17:51:04.587Z,17.82
2019-05-17T17:53:54.402Z,17.06
2019-05-17T17:56:44.167Z,16.49
2019-05-17T17:59:14.711Z,15.91
2019-05-17T18:01:45.175Z,15.63
2019-05-17T18:04:16.312Z,15.23
2019-05-17T18:07:06.137Z,14.96
2019-05-17T18:09:36.681Z,14.57
2019-05-17T18:12:07.188Z,14.41
2019-05-17T18:14:57.025Z,14.15
2019-05-17T18:17:27.445Z,13.91
2019-05-17T18:19:57.898Z,13.68
2019-05-17T18:22:28.270Z,13.42
2019-05-17T18:24:58.714Z,13.36
2019-05-17T18:27:29.161Z,13.19
2019-05-17T18:29:59.680Z,13.04
2019-05-17T18:32:49.490Z,12.91
2019-05-17T18:35:19.989Z,12.72
2019-05-17T18:37:50.374Z,12.59
2019-05-17T18:40:20.846Z,12.52
2019-05-17T18:42:51.217Z,12.44
2019-05-17T18:45:41.064Z,12.31
2019-05-17T18:48:11.604Z,12.20
2019-05-17T18:50:42.124Z,12.05
2019-05-17T18:53:16.820Z,11.94
2019-05-17T18:55:56.598Z,11.90
2019-05-17T18:58:27.027Z,11.86
2019-05-17T19:00:57.442Z,11.80
2019-05-17T19:03:27.880Z,11.72
2019-05-17T19:05:58.427Z,11.68
2019-05-17T19:08:50.937Z,11.56
2019-05-17T19:11:21.401Z,11.45
2019-05-17T19:13:52.001Z,11.45
2019-05-17T19:16:22.513Z,11.36
2019-05-17T19:18:52.893Z,11.34
2019-05-17T19:21:23.320Z,11.38
2019-05-17T19:23:53.815Z,11.37
2019-05-17T19:26:24.496Z,11.42
2019-05-17T19:28:54.926Z,11.31
2019-05-17T19:31:25.321Z,11.26
2019-05-17T19:33:55.873Z,11.33
2019-05-17T19:36:45.687Z,11.28
2019-05-17T19:39:16.124Z,11.23
2019-05-17T19:41:46.567Z,11.24
2019-05-17T19:44:16.991Z,11.28
2019-05-17T19:47:06.790Z,11.24
2019-05-17T19:49:37.305Z,11.26
2019-05-17T19:52:27.138Z,11.34
2019-05-17T19:54:57.576Z,11.25
2019-05-17T19:57:47.421Z,11.16
2019-05-17T20:00:37.250Z,11.13
2019-05-17T20:03:07.637Z,11.11
2019-05-17T20:05:38.023Z,11.15
2019-05-17T20:08:08.516Z,11.12
2019-05-17T20:10:39.010Z,11.08
2019-05-17T20:13:09.435Z,11.03
2019-05-17T20:15:39.808Z,11.03
2019-05-17T20:18:10.640Z,11.02
2019-05-17T20:20:41.032Z,10.94
2019-05-17T20:23:11.568Z,10.79
2019-05-17T20:25:42.012Z,10.80
2019-05-17T20:28:12.533Z,10.82
2019-05-17T20:31:02.318Z,10.71
2019-05-17T20:33:32.756Z,10.75
2019-05-17T20:36:03.209Z,10.70
2019-05-17T20:38:33.651Z,10.77
2019-05-17T20:41:04.079Z,10.74
2019-05-17T20:43:34.512Z,10.65
2019-05-17T20:46:04.963Z,10.63
2019-05-17T20:48:35.351Z,10.55
2019-05-17T20:51:05.798Z,10.64
2019-05-17T20:53:36.235Z,10.61
2019-05-17T20:56:06.649Z,10.50
2019-05-17T20:58:37.096Z,10.48
2019-05-17T21:01:07.562Z,10.46
2019-05-17T21:03:37.956Z,10.54
2019-05-17T21:06:08.442Z,10.46
2019-05-17T21:08:46.181Z,10.36
2019-05-17T21:11:30.346Z,10.29
2019-05-17T21:14:00.856Z,10.31
2019-05-17T21:16:31.249Z,10.26
2019-05-17T21:19:01.651Z,10.17
2019-05-17T21:21:32.114Z,10.25
2019-05-17T21:24:02.698Z,10.28
2019-05-17T21:26:33.171Z,10.26
2019-05-17T21:29:03.597Z,10.28
2019-05-17T21:31:33.999Z,10.29
2019-05-17T21:34:04.515Z,10.24
2019-05-17T21:36:35.003Z,10.36
2019-05-17T21:42:08.168Z,10.30
2019-05-17T21:44:38.643Z,10.19
2019-05-17T21:47:09.072Z,10.14
2019-05-17T21:49:39.515Z,10.02
2019-05-17T21:52:10.104Z,10.07
2019-05-17T21:54:40.794Z,10.04
2019-05-17T21:57:11.499Z,9.99
2019-05-17T21:59:41.903Z,9.98
2019-05-17T22:02:12.362Z,9.99
2019-05-17T22:04:42.730Z,10.04
2019-05-17T22:07:13.171Z,9.96
2019-05-17T22:09:43.634Z,10.00
2019-05-17T22:12:33.479Z,10.04
2019-05-17T22:15:23.273Z,10.02
2019-05-17T22:18:13.171Z,10.03
2019-05-17T22:21:03.039Z,9.90
2019-05-17T22:23:52.848Z,9.96
2019-05-17T22:26:23.240Z,9.91
2019-05-17T22:28:53.600Z,9.86
2019-05-17T22:31:24.033Z,9.83
2019-05-17T22:33:54.417Z,9.74
2019-05-17T22:36:24.844Z,9.73
2019-05-17T22:38:55.342Z,9.78
2019-05-17T22:41:25.746Z,9.77
2019-05-17T22:43:56.130Z,9.69
2019-05-17T22:46:35.565Z,9.69
2019-05-17T22:49:18.105Z,9.65
2019-05-17T22:51:48.650Z,9.65
2019-05-17T22:54:19.058Z,9.67
2019-05-17T22:56:49.596Z,9.58
2019-05-17T22:59:19.969Z,9.54
2019-05-17T23:01:50.451Z,9.58
2019-05-17T23:04:20.851Z,9.59
2019-05-17T23:06:51.334Z,9.62
2019-05-17T23:09:21.775Z,9.60
2019-05-17T23:11:52.296Z,9.57
2019-05-17T23:14:22.679Z,9.54
2019-05-17T23:16:53.120Z,9.49
2019-05-17T23:19:23.493Z,9.52
2019-05-17T23:21:53.953Z,9.53
2019-05-17T23:24:24.405Z,9.65
2019-05-17T23:26:54.835Z,9.61
2019-05-17T23:29:25.203Z,9.65
2019-05-17T23:31:55.700Z,9.54
2019-05-17T23:34:26.111Z,9.48
2019-05-17T23:36:56.485Z,9.55
2019-05-17T23:39:46.241Z,9.55
2019-05-17T23:42:16.742Z,9.55
2019-05-17T23:44:47.112Z,9.56
2019-05-17T23:47:17.648Z,9.59
2019-05-17T23:49:48.032Z,9.60
2019-05-17T23:52:18.454Z,9.58
2019-05-17T23:54:48.836Z,9.58
2019-05-17T23:57:19.330Z,9.67
2019-05-17T23:59:49.709Z,9.59
